Time;durP1;ratioP1;P1;durP2;ratioP2;P2;SDS_P1;SDS_P2;PMS_P1;PMS_P2;Temp;Humidity;BMP_temperature;BMP_pressure;BME280_temperature;BME280_humidity;BME280_pressure;Samples;Min_cycle;Max_cycle;Signal;HPM_P1;HPM_P2
2022/09/13 00:00:31;;;;;;;22.52;16.87;;;;;;;14.09;73.48;99565.50;1723300;83;21238;-55
2022/09/13 00:03:37;;;;;;;22.62;15.55;;;;;;;14.12;73.55;99560.41;1685407;84;21280;-56
2022/09/13 00:06:45;;;;;;;25.23;17.23;;;;;;;14.15;73.64;99563.25;1708112;84;21208;-55
2022/09/13 00:09:50;;;;;;;25.20;16.15;;;;;;;14.20;73.69;99564.81;1683450;84;21226;-56
2022/09/13 00:12:56;;;;;;;22.58;16.80;;;;;;;14.21;73.72;99566.49;1708136;83;21207;-55
2022/09/13 00:16:02;;;;;;;22.65;17.70;;;;;;;14.25;73.79;99561.77;1708023;83;21314;-55
2022/09/13 00:19:09;;;;;;;26.85;18.12;;;;;;;14.29;73.84;99564.38;1704187;83;21194;-55
2022/09/13 00:22:16;;;;;;;27.40;18.27;;;;;;;14.30;73.86;99559.17;1678389;85;21185;-55
2022/09/13 00:25:22;;;;;;;25.08;18.05;;;;;;;14.33;73.90;99564.79;1688711;85;21258;-55
2022/09/13 00:28:28;;;;;;;30.45;18.73;;;;;;;14.33;73.90;99563.41;1678166;85;21202;-55
2022/09/13 00:31:35;;;;;;;30.62;20.52;;;;;;;14.33;73.93;99551.87;1688887;85;21205;-55
2022/09/13 00:34:40;;;;;;;33.98;19.82;;;;;;;14.34;73.99;99551.33;1678224;84;21204;-55
2022/09/13 00:37:47;;;;;;;31.20;18.75;;;;;;;14.35;74.06;99546.15;1689293;84;21207;-55
2022/09/13 00:40:53;;;;;;;34.30;21.37;;;;;;;14.36;74.15;99550.58;1683345;84;21192;-55
2022/09/13 00:44:02;;;;;;;34.67;22.10;;;;;;;14.37;74.11;99553.63;1659983;85;21295;-54
2022/09/13 00:47:07;;;;;;;33.50;21.02;;;;;;;14.38;74.24;99549.84;1682836;85;21665;-54
2022/09/13 00:50:26;;;;;;;37.28;21.93;;;;;;;14.40;74.29;99547.68;1661485;85;21213;-55
2022/09/13 00:53:37;;;;;;;34.35;23.30;;;;;;;14.42;74.36;99545.56;1715746;83;21324;-54
2022/09/13 00:56:47;;;;;;;33.33;20.55;;;;;;;14.44;74.44;99542.92;1712458;83;21227;-55
2022/09/13 01:00:12;;;;;;;34.25;24.18;;;;;;;14.46;74.48;99541.31;1701191;83;21266;-54
2022/09/13 01:03:16;;;;;;;37.03;22.73;;;;;;;14.47;74.47;99544.37;1693302;83;21220;-55
2022/09/13 01:06:29;;;;;;;33.18;22.05;;;;;;;14.48;74.59;99534.51;1692635;85;21236;-55
2022/09/13 01:09:35;;;;;;;40.78;22.67;;;;;;;14.49;74.62;99532.05;1682432;84;21252;-55
2022/09/13 01:13:01;;;;;;;33.18;21.52;;;;;;;14.50;74.62;99535.14;1670950;85;21224;-56
2022/09/13 01:16:07;;;;;;;35.58;22.07;;;;;;;14.52;74.70;99534.91;1670919;85;21591;-55
2022/09/13 01:19:13;;;;;;;34.15;22.60;;;;;;;14.52;74.68;99532.16;1676199;85;21368;-55
2022/09/13 01:23:01;;;;;;;29.87;21.15;;;;;;;14.53;74.73;99529.70;1674184;85;21224;-55
2022/09/13 01:26:16;;;;;;;38.45;22.67;;;;;;;14.54;74.75;99526.73;1668787;85;21256;-56
2022/09/13 01:30:16;;;;;;;34.08;21.82;;;;;;;14.55;74.89;99523.45;1676426;85;21237;-55
2022/09/13 01:33:45;;;;;;;33.60;22.10;;;;;;;14.56;74.82;99529.26;1675115;85;21257;-56
2022/09/13 01:37:16;;;;;;;36.38;23.05;;;;;;;14.53;74.80;99524.20;1672728;85;21240;-55
2022/09/13 01:40:47;;;;;;;40.58;24.75;;;;;;;14.52;74.90;99529.41;1675860;85;21182;-55
2022/09/13 01:44:02;;;;;;;36.73;23.50;;;;;;;14.53;75.01;99520.92;1676428;85;21208;-56
2022/09/13 01:47:30;;;;;;;40.73;23.12;;;;;;;14.55;75.06;99525.69;1676994;85;21252;-56
2022/09/13 01:50:46;;;;;;;34.92;23.52;;;;;;;14.55;75.05;99516.57;1675488;85;21277;-57
2022/09/13 01:54:21;;;;;;;35.58;22.98;;;;;;;14.55;75.09;99522.08;1676628;84;21233;-56
2022/09/13 01:57:40;;;;;;;34.80;22.93;;;;;;;14.55;75.08;99522.08;1676584;85;21216;-55
2022/09/13 02:01:17;;;;;;;34.05;22.40;;;;;;;14.55;75.16;99519.32;1665502;85;21180;-55
2022/09/13 02:04:30;;;;;;;34.98;22.15;;;;;;;14.55;75.18;99516.05;1676120;85;21229;-56
2022/09/13 02:07:49;;;;;;;34.95;22.80;;;;;;;14.55;75.29;99509.16;1674914;85;21200;-54
2022/09/13 02:11:03;;;;;;;40.23;23.57;;;;;;;14.55;75.30;99512.44;1678836;85;21367;-55
2022/09/13 02:14:32;;;;;;;35.73;23.22;;;;;;;14.56;75.43;99506.70;1678662;85;21228;-55
2022/09/13 02:17:43;;;;;;;36.80;22.67;;;;;;;14.60;75.46;99511.23;1679133;85;21264;-56
2022/09/13 02:20:55;;;;;;;33.63;22.60;;;;;;;14.60;75.44;99511.23;1678925;85;21256;-56
2022/09/13 02:24:08;;;;;;;34.38;21.95;;;;;;;14.59;75.50;99502.64;1662403;85;21235;-55
2022/09/13 02:27:23;;;;;;;36.63;22.80;;;;;;;14.61;75.57;99508.78;1678755;85;21205;-55
2022/09/13 02:30:30;;;;;;;34.67;21.93;;;;;;;14.63;75.63;99505.28;1678988;85;21359;-55
2022/09/13 02:33:39;;;;;;;32.15;20.92;;;;;;;14.65;75.61;99508.67;1678774;85;21257;-56
2022/09/13 02:36:48;;;;;;;27.82;19.27;;;;;;;14.64;75.60;99506.95;1681366;83;21319;-55
2022/09/13 02:39:57;;;;;;;27.02;19.85;;;;;;;14.63;75.64;99502.00;1690988;85;21800;-54
2022/09/13 02:43:14;;;;;;;24.20;19.42;;;;;;;14.60;75.60;99507.11;1660058;85;21237;-55
2022/09/13 02:46:48;;;;;;;26.45;18.67;;;;;;;14.55;75.58;99501.42;1650701;86;21197;-55
2022/09/13 02:50:10;;;;;;;27.52;17.45;;;;;;;14.50;75.66;99505.37;1660186;85;21250;-54
2022/09/13 02:53:40;;;;;;;24.40;16.87;;;;;;;14.49;75.75;99507.83;1661818;85;21241;-54
2022/09/13 02:57:15;;;;;;;21.85;16.15;;;;;;;14.49;75.82;99502.31;1637846;86;21301;-56
2022/09/13 03:00:20;;;;;;;19.87;15.05;;;;;;;14.44;75.83;99501.61;1660894;85;21257;-56
2022/09/13 03:03:26;;;;;;;22.32;15.10;;;;;;;14.43;75.89;99494.39;1648436;85;21297;-54
2022/09/13 03:06:33;;;;;;;20.32;14.95;;;;;;;14.42;75.91;99497.37;1657329;85;21337;-55
2022/09/13 03:09:40;;;;;;;14.75;12.45;;;;;;;14.37;75.85;99503.55;1680211;84;21243;-54
2022/09/13 03:13:19;;;;;;;14.63;11.40;;;;;;;14.34;75.95;99492.13;1659844;85;21390;-55
2022/09/13 03:17:01;;;;;;;14.35;10.93;;;;;;;14.34;76.08;99490.75;1658881;85;21237;-55
2022/09/13 03:20:25;;;;;;;11.60;10.10;;;;;;;14.35;76.11;99486.95;1660321;85;21399;-54
2022/09/13 03:23:48;;;;;;;14.60;10.53;;;;;;;14.34;76.16;99486.62;1648986;85;21644;-53
2022/09/13 03:27:22;;;;;;;15.45;12.07;;;;;;;14.33;76.13;99489.93;1649836;86;21205;-55
2022/09/13 03:30:28;;;;;;;13.50;11.28;;;;;;;14.32;76.16;99481.86;1650523;85;21241;-53
2022/09/13 03:33:44;;;;;;;16.25;11.28;;;;;;;14.32;76.24;99481.86;1650550;85;21244;-54
2022/09/13 03:36:59;;;;;;;19.10;11.88;;;;;;;14.32;76.24;99479.96;1651018;85;21249;-54
2022/09/13 03:40:10;;;;;;;16.37;12.28;;;;;;;14.29;76.14;99483.69;1654012;87;21277;-54
2022/09/13 03:43:37;;;;;;;15.53;11.80;;;;;;;14.26;76.20;99482.75;1653796;86;21398;-54
2022/09/13 03:46:51;;;;;;;22.22;11.88;;;;;;;14.21;76.21;99486.14;1667237;85;21200;-55
2022/09/13 03:49:56;;;;;;;18.25;12.25;;;;;;;14.17;76.22;99479.92;1693047;85;21275;-54
2022/09/13 03:53:09;;;;;;;20.62;12.00;;;;;;;14.16;76.34;99483.76;1693038;83;21241;-54
2022/09/13 03:56:25;;;;;;;16.62;12.05;;;;;;;14.18;76.42;99482.98;1675234;85;21237;-54
2022/09/13 03:59:32;;;;;;;20.12;13.68;;;;;;;14.14;76.34;99483.13;1673804;85;21625;-53
2022/09/13 04:02:37;;;;;;;21.85;13.35;;;;;;;14.07;76.23;99487.81;1665570;85;21284;-53
2022/09/13 04:05:42;;;;;;;20.72;13.15;;;;;;;13.99;76.22;99488.91;1670939;84;21232;-55
2022/09/13 04:08:48;;;;;;;18.87;12.53;;;;;;;13.93;76.18;99491.70;1673583;85;21241;-55
2022/09/13 04:11:54;;;;;;;17.82;11.97;;;;;;;13.84;76.16;99493.02;1675151;85;21292;-54
2022/09/13 04:15:00;;;;;;;18.12;11.70;;;;;;;13.72;76.13;99496.97;1675143;85;21229;-54
2022/09/13 04:18:06;;;;;;;21.73;12.30;;;;;;;13.66;76.25;99496.47;1693005;83;21291;-54
2022/09/13 04:21:12;;;;;;;18.35;12.05;;;;;;;13.63;76.33;99495.53;1693035;85;21267;-54
2022/09/13 04:24:18;;;;;;;13.20;10.23;;;;;;;13.61;76.37;99501.77;1670770;85;21257;-55
2022/09/13 04:27:24;;;;;;;14.38;10.48;;;;;;;13.58;76.45;99490.35;1692908;83;21212;-55
2022/09/13 04:30:30;;;;;;;13.85;10.08;;;;;;;13.56;76.46;99493.88;1692990;85;21200;-54
2022/09/13 04:33:40;;;;;;;14.20;9.53;;;;;;;13.58;76.61;99494.48;1662076;85;21237;-54
2022/09/13 04:36:40;;;;;;;12.60;9.98;;;;;;;13.59;76.64;99494.81;1665617;85;21235;-54
2022/09/13 04:39:47;;;;;;;11.80;9.83;;;;;;;13.61;76.66;99499.54;1659354;83;21245;-54
2022/09/13 04:42:47;;;;;;;12.20;9.10;;;;;;;13.62;76.67;99495.75;1687397;84;21267;-54
2022/09/13 04:45:54;;;;;;;14.03;8.93;;;;;;;13.62;76.70;99497.13;1686823;85;21216;-54
2022/09/13 04:49:00;;;;;;;14.98;10.78;;;;;;;13.60;76.63;99495.11;1687470;84;21252;-54
2022/09/13 04:52:06;;;;;;;12.82;8.98;;;;;;;13.50;76.58;99495.05;1687406;85;21264;-56
2022/09/13 04:55:13;;;;;;;12.80;10.43;;;;;;;13.48;76.63;99489.44;1687602;85;21188;-54
2022/09/13 04:58:21;;;;;;;14.15;9.80;;;;;;;13.45;76.65;99496.22;1708164;83;21232;-54
2022/09/13 05:01:28;;;;;;;13.65;9.98;;;;;;;13.46;76.75;99496.52;1707601;83;21236;-56
2022/09/13 05:04:35;;;;;;;14.98;9.63;;;;;;;13.51;76.90;99495.35;1706772;84;21251;-57
2022/09/13 05:07:42;;;;;;;12.28;9.03;;;;;;;13.52;76.88;99498.41;1678234;85;21375;-55
2022/09/13 05:10:48;;;;;;;15.25;9.35;;;;;;;13.57;76.95;99501.05;1678711;85;21267;-55
2022/09/13 05:13:59;;;;;;;11.18;8.58;;;;;;;13.63;77.01;99501.55;1679007;85;21291;-56
2022/09/13 05:17:11;;;;;;;12.37;8.55;;;;;;;13.67;76.97;99503.65;1702054;83;21194;-57
2022/09/13 05:20:17;;;;;;;10.85;8.40;;;;;;;13.73;77.03;99497.83;1691122;85;21223;-56
2022/09/13 05:23:23;;;;;;;11.40;8.60;;;;;;;13.78;77.03;99496.64;1712353;83;21267;-56
2022/09/13 05:26:30;;;;;;;11.60;8.93;;;;;;;13.77;76.88;99494.41;1677191;84;21765;-52
2022/09/13 05:29:35;;;;;;;18.98;9.85;;;;;;;13.77;76.89;99493.04;1705612;84;21279;-53
2022/09/13 05:32:40;;;;;;;16.73;11.83;;;;;;;13.80;76.85;99493.13;1706831;83;21560;-52
2022/09/13 05:35:48;;;;;;;20.25;13.15;;;;;;;13.81;76.76;99500.33;1622605;88;21801;-53
2022/09/13 05:38:54;;;;;;;20.02;13.25;;;;;;;13.79;76.72;99496.95;1691027;85;21249;-52
2022/09/13 05:42:01;;;;;;;20.55;13.68;;;;;;;13.77;76.68;99504.56;1657384;86;21764;-53
2022/09/13 05:45:09;;;;;;;18.98;13.38;;;;;;;13.76;76.68;99504.27;1681934;85;21271;-54
2022/09/13 05:48:14;;;;;;;22.67;13.48;;;;;;;13.79;76.72;99518.95;1681924;85;21203;-52
2022/09/13 05:51:29;;;;;;;21.93;14.80;;;;;;;13.78;76.72;99520.03;1682262;85;21196;-52
2022/09/13 05:54:36;;;;;;;20.02;12.53;;;;;;;13.78;76.66;99520.85;1683156;85;21251;-53
2022/09/13 05:57:43;;;;;;;17.73;13.15;;;;;;;13.76;76.67;99523.00;1683106;85;21294;-53
2022/09/13 06:00:51;;;;;;;15.90;11.40;;;;;;;13.76;76.68;99529.88;1679538;83;21204;-53
2022/09/13 06:04:02;;;;;;;16.85;11.57;;;;;;;13.80;76.75;99533.01;1672955;85;21947;-54
2022/09/13 06:07:09;;;;;;;15.72;12.45;;;;;;;13.77;76.74;99538.95;1665737;85;21218;-54
2022/09/13 06:10:19;;;;;;;19.37;13.05;;;;;;;13.79;76.80;99537.69;1681971;85;21573;-54
2022/09/13 06:13:26;;;;;;;18.42;13.05;;;;;;;13.84;76.81;99541.16;1679731;85;21287;-54
2022/09/13 06:16:33;;;;;;;17.05;12.25;;;;;;;13.85;76.82;99538.19;1660177;85;21792;-53
2022/09/13 06:19:38;;;;;;;18.62;14.23;;;;;;;13.88;76.84;99547.38;1681989;85;21788;-53
2022/09/13 06:22:46;;;;;;;18.32;12.63;;;;;;;13.86;76.72;99552.25;1680746;85;21780;-55
2022/09/13 06:25:51;;;;;;;17.40;11.70;;;;;;;13.84;76.70;99546.14;1675593;85;21212;-55
2022/09/13 06:29:00;;;;;;;15.65;11.95;;;;;;;13.85;76.74;99542.84;1682040;85;22201;-55
2022/09/13 06:32:06;;;;;;;22.13;12.53;;;;;;;13.85;76.70;99536.81;1682534;85;21831;-55
2022/09/13 06:35:17;;;;;;;16.90;12.23;;;;;;;13.89;76.80;99549.61;1680784;85;21235;-55
2022/09/13 06:38:26;;;;;;;18.07;11.65;;;;;;;13.95;76.89;99539.96;1669441;85;21224;-56
2022/09/13 06:41:32;;;;;;;17.73;12.33;;;;;;;14.04;76.97;99555.67;1692708;83;21290;-53
2022/09/13 06:44:37;;;;;;;16.40;11.75;;;;;;;14.06;76.83;99553.03;1715549;83;21216;-54
2022/09/13 06:47:45;;;;;;;16.05;11.25;;;;;;;14.01;76.73;99551.98;1714300;83;21385;-54
2022/09/13 06:50:51;;;;;;;18.02;12.25;;;;;;;14.00;76.78;99560.77;1715237;83;21308;-53
2022/09/13 06:53:56;;;;;;;18.35;12.78;;;;;;;14.02;76.77;99553.14;1716280;83;21243;-53
2022/09/13 06:57:02;;;;;;;17.25;11.95;;;;;;;14.02;76.75;99550.91;1715612;83;21208;-54
2022/09/13 07:00:08;;;;;;;21.30;13.93;;;;;;;13.96;76.66;99559.52;1714242;83;21377;-53
2022/09/13 07:03:08;;;;;;;22.67;14.78;;;;;;;13.89;76.65;99553.19;1716205;83;21224;-55
2022/09/13 07:06:07;;;;;;;27.32;17.90;;;;;;;13.90;76.84;99556.27;1714558;82;21205;-55
2022/09/13 07:09:19;;;;;;;29.77;18.05;;;;;;;13.93;76.86;99552.23;1704055;83;21323;-55
2022/09/13 07:12:25;;;;;;;20.70;14.98;;;;;;;13.96;76.90;99558.66;1716546;83;21251;-54
2022/09/13 07:15:35;;;;;;;24.18;14.98;;;;;;;13.98;76.89;99556.55;1716402;83;21227;-54
2022/09/13 07:18:43;;;;;;;20.75;12.37;;;;;;;13.96;76.82;99554.53;1714611;83;21586;-53
2022/09/13 07:21:55;;;;;;;19.77;12.07;;;;;;;13.96;76.80;99553.16;1716155;83;21228;-53
2022/09/13 07:25:06;;;;;;;16.37;10.60;;;;;;;13.98;76.85;99556.03;1716059;83;21204;-52
2022/09/13 07:28:14;;;;;;;17.23;9.08;;;;;;;14.04;76.98;99541.91;1678273;85;21303;-52
2022/09/13 07:31:29;;;;;;;13.78;9.68;;;;;;;14.17;77.15;99540.48;1659305;86;21267;-54
2022/09/13 07:34:38;;;;;;;10.70;8.18;;;;;;;14.30;77.14;99544.58;1690149;83;21248;-51
2022/09/13 07:37:48;;;;;;;13.55;8.13;;;;;;;14.40;77.09;99548.53;1714448;82;21251;-54
2022/09/13 07:41:05;;;;;;;13.35;8.30;;;;;;;14.47;77.02;99540.23;1714974;83;21732;-53
2022/09/13 07:44:12;;;;;;;13.53;8.68;;;;;;;14.55;77.06;99542.73;1708732;83;21701;-54
2022/09/13 07:47:19;;;;;;;19.10;9.03;;;;;;;14.60;76.93;99548.42;1709995;84;21233;-52
2022/09/13 07:50:25;;;;;;;11.73;7.95;;;;;;;14.51;76.64;99555.23;1653694;85;21614;-53
2022/09/13 07:53:30;;;;;;;13.35;8.93;;;;;;;14.44;76.59;99556.69;1679483;85;21237;-52
2022/09/13 07:56:45;;;;;;;16.48;8.83;;;;;;;14.38;76.54;99556.16;1689233;85;21259;-53
2022/09/13 07:59:50;;;;;;;12.50;9.08;;;;;;;14.39;76.68;99554.27;1711037;84;21184;-54
2022/09/13 08:02:58;;;;;;;12.40;9.25;;;;;;;14.39;76.66;99555.64;1711048;84;21219;-53
2022/09/13 08:06:04;;;;;;;12.98;9.40;;;;;;;14.38;76.66;99554.78;1711907;84;21231;-53
2022/09/13 08:09:10;;;;;;;14.47;8.63;;;;;;;14.45;76.73;99555.61;1710021;84;21220;-54
2022/09/13 08:12:16;;;;;;;11.60;7.92;;;;;;;14.49;76.73;99549.13;1683132;85;21230;-53
2022/09/13 08:15:23;;;;;;;10.08;6.90;;;;;;;14.59;76.81;99546.72;1688159;82;21224;-53
2022/09/13 08:18:30;;;;;;;8.85;6.70;;;;;;;14.76;76.89;99545.96;1677787;85;21252;-53
2022/09/13 08:21:42;;;;;;;8.30;6.35;;;;;;;14.91;76.76;99547.02;1711218;82;21585;-53
2022/09/13 08:24:48;;;;;;;8.30;5.87;;;;;;;15.03;76.77;99538.36;1646836;84;21279;-55
2022/09/13 08:27:55;;;;;;;6.65;5.45;;;;;;;15.28;76.82;99529.53;1656383;86;21255;-56
2022/09/13 08:31:01;;;;;;;8.60;5.50;;;;;;;15.55;76.75;99532.89;1711497;83;21757;-56
2022/09/13 08:34:10;;;;;;;9.23;5.85;;;;;;;15.75;76.50;99536.27;1711021;84;21332;-56
2022/09/13 08:37:18;;;;;;;6.85;5.62;;;;;;;15.76;76.23;99533.84;1700962;83;21232;-56
2022/09/13 08:40:25;;;;;;;7.45;5.35;;;;;;;15.83;76.13;99538.72;1708337;83;21226;-56
2022/09/13 08:43:59;;;;;;;7.55;5.78;;;;;;;15.87;75.97;99542.17;1706935;84;21235;-55
2022/09/13 08:47:27;;;;;;;9.13;6.08;;;;;;;15.84;75.76;99537.67;1700538;83;21227;-55
2022/09/13 08:50:36;;;;;;;9.45;5.60;;;;;;;15.89;75.95;99544.17;1716909;83;21258;-55
2022/09/13 08:53:52;;;;;;;8.75;5.78;;;;;;;15.89;75.67;99546.93;1717597;83;21390;-56
2022/09/13 08:57:36;;;;;;;7.35;5.30;;;;;;;15.83;75.54;99543.72;1717074;83;21571;-56
2022/09/13 09:00:55;;;;;;;;;;;;;;;15.95;75.80;99541.86;1663031;85;21371;-55
2022/09/13 09:04:20;;;;;;;6.80;4.67;;;;;;;16.13;75.82;99539.09;1663479;85;20237;-51
2022/09/13 09:07:26;;;;;;;7.28;5.25;;;;;;;16.22;75.61;99544.59;1625040;87;21305;-52
2022/09/13 09:10:36;;;;;;;9.25;5.30;;;;;;;16.13;75.33;99539.62;1643554;87;21239;-52
2022/09/13 09:13:48;;;;;;;8.00;5.30;;;;;;;16.20;75.60;99537.11;1685812;84;21262;-49
2022/09/13 09:16:58;;;;;;;7.70;4.67;;;;;;;16.20;75.46;99539.87;1686949;85;21231;-51
2022/09/13 09:20:11;;;;;;;6.00;4.80;;;;;;;16.13;75.21;99538.24;1687826;85;21271;-47
2022/09/13 09:23:29;;;;;;;7.22;4.90;;;;;;;16.07;75.29;99537.80;1687870;84;21799;-47
2022/09/13 09:26:36;;;;;;;7.78;5.78;;;;;;;16.04;75.27;99539.12;1687124;85;21203;-47
2022/09/13 09:29:46;;;;;;;7.03;5.20;;;;;;;16.06;75.27;99541.09;1687465;84;21323;-48
2022/09/13 09:33:19;;;;;;;12.78;5.85;;;;;;;16.07;75.12;99543.31;1629605;86;21298;-48
2022/09/13 09:36:47;;;;;;;7.58;5.37;;;;;;;16.13;75.26;99543.23;1673317;85;21545;-47
2022/09/13 09:39:55;;;;;;;8.00;5.25;;;;;;;16.24;75.41;99543.83;1655922;85;21244;-48
2022/09/13 09:43:01;;;;;;;7.03;4.87;;;;;;;16.31;75.40;99544.60;1642963;86;21292;-48
2022/09/13 09:46:08;;;;;;;12.55;8.03;;;;;;;16.34;75.39;99541.90;1641521;84;21674;-48
2022/09/13 09:53:17;;;;;;;6.62;5.15;;;;;;;16.43;75.39;99544.63;1656895;84;21268;-48
2022/09/13 09:56:40;;;;;;;6.90;4.60;;;;;;;16.31;75.09;99545.98;1631555;86;21410;-48
2022/09/13 09:59:48;;;;;;;10.50;5.78;;;;;;;16.23;75.13;99547.69;1681424;85;21638;-48
2022/09/13 10:02:58;;;;;;;11.30;7.53;;;;;;;16.19;75.22;99547.83;1658025;85;21237;-48
2022/09/13 10:06:20;;;;;;;7.00;5.55;;;;;;;16.15;75.10;99543.86;1680614;85;21204;-47
2022/09/13 10:09:27;;;;;;;7.95;5.62;;;;;;;16.14;75.16;99547.67;1680844;85;21390;-51
2022/09/13 10:12:40;;;;;;;6.35;5.15;;;;;;;16.12;75.14;99542.09;1681194;85;21303;-52
2022/09/13 10:15:51;;;;;;;6.70;5.50;;;;;;;16.11;75.19;99545.38;1653537;86;21211;-53
2022/09/13 10:18:56;;;;;;;7.97;4.87;;;;;;;16.09;75.25;99540.62;1656676;83;21224;-53
2022/09/13 10:22:12;;;;;;;6.50;5.47;;;;;;;16.09;75.24;99548.08;1678145;85;21563;-54
2022/09/13 10:25:30;;;;;;;8.98;6.97;;;;;;;16.13;75.33;99541.00;1679880;85;21204;-52
2022/09/13 10:28:40;;;;;;;8.10;6.20;;;;;;;16.18;75.32;99538.39;1680840;83;21227;-53
2022/09/13 10:31:57;;;;;;;7.65;5.45;;;;;;;16.23;75.40;99545.45;1680387;85;21193;-52
2022/09/13 10:35:04;;;;;;;7.17;5.75;;;;;;;16.17;75.17;99535.34;1679912;85;21280;-52
2022/09/13 10:38:11;;;;;;;7.12;5.58;;;;;;;16.10;75.11;99540.94;1679859;83;21264;-52
2022/09/13 10:41:29;;;;;;;6.00;4.65;;;;;;;16.08;75.01;99543.08;1681152;85;21228;-52
2022/09/13 10:44:40;;;;;;;7.33;5.53;;;;;;;16.02;75.00;99546.78;1678349;84;21272;-50
2022/09/13 10:47:54;;;;;;;5.85;4.90;;;;;;;15.96;75.00;99547.70;1710427;83;21226;-54
2022/09/13 10:51:14;;;;;;;6.12;5.00;;;;;;;15.93;75.13;99548.17;1713873;83;21619;-53
2022/09/13 10:54:26;;;;;;;8.60;4.67;;;;;;;15.89;75.22;99548.84;1712269;83;21251;-53
2022/09/13 10:57:42;;;;;;;6.20;5.17;;;;;;;15.88;75.29;99543.87;1716104;83;21224;-54
2022/09/13 11:01:15;;;;;;;6.58;5.00;;;;;;;15.92;75.37;99545.08;1711967;83;21606;-52
2022/09/13 11:05:10;;;;;;;5.00;4.40;;;;;;;15.91;75.33;99552.22;1685812;84;21295;-54
2022/09/13 11:09:10;;;;;;;9.43;4.90;;;;;;;15.83;75.24;99540.95;1687025;84;21246;-54
2022/09/13 11:12:39;;;;;;;7.80;5.30;;;;;;;15.74;75.21;99542.34;1707135;83;21369;-54
2022/09/13 11:16:38;;;;;;;6.45;4.80;;;;;;;15.69;75.42;99542.70;1718943;82;21275;-53
2022/09/13 11:20:10;;;;;;;7.08;5.15;;;;;;;15.65;75.41;99545.08;1693599;83;21781;-52
2022/09/13 11:23:40;;;;;;;6.17;5.42;;;;;;;15.68;75.59;99546.00;1673695;85;21224;-51
2022/09/13 11:27:08;;;;;;;6.25;5.47;;;;;;;15.66;75.57;99546.78;1671685;85;21240;-53
2022/09/13 11:30:25;;;;;;;6.62;5.92;;;;;;;15.60;75.57;99547.67;1681736;85;21556;-54
2022/09/13 11:34:00;;;;;;;9.03;7.45;;;;;;;15.55;75.47;99550.83;1715372;83;21740;-59
2022/09/13 11:37:28;;;;;;;10.45;8.90;;;;;;;15.53;75.61;99557.95;1689578;85;21240;-54
2022/09/13 11:40:50;;;;;;;11.83;10.18;;;;;;;15.52;75.61;99554.05;1707944;82;21734;-53
2022/09/13 11:44:20;;;;;;;13.95;12.18;;;;;;;15.46;75.47;99557.16;1688440;84;21220;-54
2022/09/13 11:47:33;;;;;;;14.53;12.43;;;;;;;15.39;75.49;99559.16;1699663;83;21249;-54
2022/09/13 11:51:04;;;;;;;15.70;12.82;;;;;;;15.33;75.52;99560.03;1682024;85;21239;-54
2022/09/13 11:54:51;;;;;;;17.32;15.43;;;;;;;15.29;75.60;99559.30;1672372;83;21251;-52
2022/09/13 11:58:30;;;;;;;20.37;16.05;;;;;;;15.29;75.71;99564.30;1666784;84;21255;-52
2022/09/13 12:01:43;;;;;;;17.70;15.85;;;;;;;15.29;75.75;99569.81;1649066;84;21852;-51
2022/09/13 12:05:06;;;;;;;18.80;16.52;;;;;;;15.21;75.72;99567.86;1654434;86;21192;-50
2022/09/13 12:08:24;;;;;;;18.30;16.32;;;;;;;15.16;75.74;99564.41;1655963;86;21790;-51
2022/09/13 12:11:43;;;;;;;20.95;18.10;;;;;;;15.10;75.76;99565.31;1693956;83;21671;-55
2022/09/13 12:14:58;;;;;;;18.62;16.17;;;;;;;15.09;75.85;99565.02;1654663;86;21309;-54
2022/09/13 12:18:21;;;;;;;21.30;16.82;;;;;;;15.08;75.91;99566.63;1686859;83;21296;-54
2022/09/13 12:21:35;;;;;;;17.65;15.50;;;;;;;15.04;75.84;99564.84;1634273;86;21237;-54
2022/09/13 12:25:06;;;;;;;19.87;17.77;;;;;;;15.03;75.96;99563.16;1635641;86;21465;-54
2022/09/13 12:39:02;;;;;;;18.80;16.50;;;;;;;15.04;76.01;99552.44;1781224;78;22846;-54
2022/09/13 12:42:47;;;;;;;20.85;17.52;;;;;;;14.97;76.01;99560.75;1768906;80;21558;-55
2022/09/13 12:46:25;;;;;;;23.32;17.27;;;;;;;14.96;75.99;99556.84;1755466;81;21343;-51
2022/09/13 12:49:43;;;;;;;25.20;19.20;;;;;;;14.94;76.06;99561.20;1755826;80;21792;-51
2022/09/13 12:53:32;;;;;;;25.80;20.68;;;;;;;14.93;76.00;99562.80;1778400;80;21786;-52
2022/09/13 12:56:52;;;;;;;27.13;19.75;;;;;;;14.86;76.01;99565.61;1784912;80;21832;-52
2022/09/13 13:00:29;;;;;;;23.77;20.15;;;;;;;14.82;76.00;99569.04;1786611;80;21188;-51
2022/09/13 13:03:40;;;;;;;24.05;19.50;;;;;;;14.78;75.94;99580.17;1787080;80;21486;-51
2022/09/13 13:07:02;;;;;;;20.97;16.95;;;;;;;14.71;75.96;99577.46;1800598;79;21204;-51
2022/09/13 13:10:12;;;;;;;18.67;16.20;;;;;;;14.71;75.99;99584.35;1787749;79;21244;-50
2022/09/13 13:13:39;;;;;;;18.77;14.28;;;;;;;14.74;76.03;99583.94;1794420;79;21751;-53
2022/09/13 13:16:51;;;;;;;16.97;13.68;;;;;;;14.76;76.02;99583.16;1756321;81;21240;-52
2022/09/13 13:20:00;;;;;;;15.45;13.13;;;;;;;14.78;76.02;99581.03;1764128;79;21228;-51
2022/09/13 13:23:34;;;;;;;18.02;12.98;;;;;;;14.77;75.97;99584.87;1801261;78;21195;-50
2022/09/13 13:26:59;;;;;;;13.87;12.17;;;;;;;14.74;75.92;99582.55;1783003;79;21176;-51
2022/09/13 13:30:41;;;;;;;14.00;11.35;;;;;;;14.71;75.90;99578.84;1807043;79;21335;-51
2022/09/13 13:34:12;;;;;;;11.75;9.70;;;;;;;14.68;75.92;99589.48;1785128;79;21581;-50
2022/09/13 13:37:22;;;;;;;12.37;9.33;;;;;;;14.66;76.00;99592.98;1775062;79;22029;-50
2022/09/13 13:40:32;;;;;;;8.83;7.28;;;;;;;14.64;76.01;99591.83;1802876;79;21173;-50
2022/09/13 13:43:40;;;;;;;8.77;7.87;;;;;;;14.63;76.03;99598.94;1796898;79;21204;-51
2022/09/13 13:46:45;;;;;;;9.73;6.97;;;;;;;14.58;75.95;99598.23;1780227;79;21197;-51
2022/09/13 13:50:12;;;;;;;7.35;4.92;;;;;;;14.54;75.95;99594.77;1777207;79;21814;-52
2022/09/13 13:53:48;;;;;;;6.28;4.95;;;;;;;14.51;75.92;99593.80;1771940;79;21243;-54
2022/09/13 13:56:54;;;;;;;5.62;4.65;;;;;;;14.42;75.88;99592.38;1779833;79;21628;-54
2022/09/13 14:00:29;;;;;;;7.85;5.30;;;;;;;14.36;75.94;99596.01;1802663;78;21210;-54
2022/09/13 14:03:58;;;;;;;4.83;4.33;;;;;;;14.33;75.92;99597.83;1750588;79;21742;-54
2022/09/13 14:07:39;;;;;;;5.75;4.47;;;;;;;14.31;76.00;99600.80;1760933;79;21542;-54
2022/09/13 14:11:24;;;;;;;7.50;5.05;;;;;;;14.30;76.02;99605.16;1758247;80;21562;-55
2022/09/13 14:15:01;;;;;;;6.47;5.42;;;;;;;14.28;76.09;99610.02;1779553;79;21686;-55
2022/09/13 14:18:42;;;;;;;6.53;5.58;;;;;;;14.28;76.10;99612.25;1747483;79;21550;-55
2022/09/13 14:21:49;;;;;;;8.18;6.15;;;;;;;14.24;76.08;99610.13;1765740;79;21499;-55
2022/09/13 14:24:58;;;;;;;18.60;16.27;;;;;;;14.19;76.04;99614.06;1764383;80;21555;-55
2022/09/13 14:28:05;;;;;;;22.35;17.40;;;;;;;14.12;75.98;99618.73;1758621;79;21515;-55
2022/09/13 14:31:11;;;;;;;14.03;10.95;;;;;;;14.04;75.96;99618.97;1791332;78;21726;-55
2022/09/13 14:34:29;;;;;;;8.58;7.00;;;;;;;13.99;76.00;99619.63;1752599;79;21797;-56
2022/09/13 14:37:39;;;;;;;6.72;6.03;;;;;;;13.93;75.97;99616.88;1743838;81;21184;-55
2022/09/13 14:40:46;;;;;;;7.83;6.08;;;;;;;13.88;76.03;99622.19;1710971;84;21779;-55
2022/09/13 14:43:52;;;;;;;6.90;5.70;;;;;;;13.87;76.10;99631.52;1740163;82;21859;-55
2022/09/13 14:47:08;;;;;;;6.90;5.65;;;;;;;13.82;76.08;99628.55;1741570;82;21193;-55
2022/09/13 14:50:21;;;;;;;7.92;6.25;;;;;;;13.79;76.15;99635.34;1742414;81;21196;-56
2022/09/13 14:53:32;;;;;;;7.20;6.08;;;;;;;13.79;76.15;99630.36;1770969;80;21216;-55
2022/09/13 14:56:49;;;;;;;7.35;5.97;;;;;;;13.79;76.21;99633.11;1771972;80;21177;-57
2022/09/13 14:59:58;;;;;;;8.38;6.33;;;;;;;13.78;76.24;99638.31;1772052;80;21252;-55
2022/09/13 15:03:10;;;;;;;6.45;5.12;;;;;;;13.76;76.24;99638.53;1744093;80;21296;-55
2022/09/13 15:06:29;;;;;;;7.08;5.62;;;;;;;13.74;76.26;99639.27;1751961;79;21581;-55
2022/09/13 15:09:37;;;;;;;6.25;5.20;;;;;;;13.72;76.23;99644.64;1771696;80;21216;-56
2022/09/13 15:12:44;;;;;;;7.95;6.03;;;;;;;13.70;76.28;99650.36;1773671;79;21615;-56
2022/09/13 15:15:52;;;;;;;7.67;5.95;;;;;;;13.69;76.29;99652.81;1772633;79;21197;-55
2022/09/13 15:19:22;;;;;;;6.72;5.30;;;;;;;13.66;76.24;99651.01;1767349;81;21593;-57